sensor_id;sensor_type;location;lat;lon;timestamp;temperature;humidity
37340;DHT22;23223;51.006;7.610;2024-03-08T00:01:12;5.00;99.90
37340;DHT22;23223;51.006;7.610;2024-03-08T00:03:38;4.90;99.90
37340;DHT22;23223;51.006;7.610;2024-03-08T00:06:05;4.80;99.90
37340;DHT22;23223;51.006;7.610;2024-03-08T00:08:31;4.70;99.90
37340;DHT22;23223;51.006;7.610;2024-03-08T00:10:57;4.70;99.90
37340;DHT22;23223;51.006;7.610;2024-03-08T00:13:22;4.70;99.90
37340;DHT22;23223;51.006;7.610;2024-03-08T00:15:48;4.60;99.90
37340;DHT22;23223;51.006;7.610;2024-03-08T00:18:13;4.60;99.90
37340;DHT22;23223;51.006;7.610;2024-03-08T00:20:39;4.50;99.90
37340;DHT22;23223;51.006;7.610;2024-03-08T00:23:05;4.50;99.90
37340;DHT22;23223;51.006;7.610;2024-03-08T00:25:30;4.50;99.90
37340;DHT22;23223;51.006;7.610;2024-03-08T00:27:56;4.30;99.90
37340;DHT22;23223;51.006;7.610;2024-03-08T00:30:22;4.40;99.90
37340;DHT22;23223;51.006;7.610;2024-03-08T00:32:49;4.40;99.90
37340;DHT22;23223;51.006;7.610;2024-03-08T00:35:15;4.60;99.90
37340;DHT22;23223;51.006;7.610;2024-03-08T00:37:41;4.70;99.90
37340;DHT22;23223;51.006;7.610;2024-03-08T00:40:12;4.60;99.90
37340;DHT22;23223;51.006;7.610;2024-03-08T00:42:38;4.60;99.90
37340;DHT22;23223;51.006;7.610;2024-03-08T00:45:05;4.60;99.90
37340;DHT22;23223;51.006;7.610;2024-03-08T00:47:31;4.70;99.90
37340;DHT22;23223;51.006;7.610;2024-03-08T00:49:56;4.80;99.90
37340;DHT22;23223;51.006;7.610;2024-03-08T00:52:22;4.80;99.90
37340;DHT22;23223;51.006;7.610;2024-03-08T00:54:49;4.90;99.90
37340;DHT22;23223;51.006;7.610;2024-03-08T00:57:15;4.80;99.90
37340;DHT22;23223;51.006;7.610;2024-03-08T00:59:40;4.60;99.90
37340;DHT22;23223;51.006;7.610;2024-03-08T01:02:06;4.50;99.90
37340;DHT22;23223;51.006;7.610;2024-03-08T01:04:32;4.60;99.90
37340;DHT22;23223;51.006;7.610;2024-03-08T01:06:59;4.60;99.90
37340;DHT22;23223;51.006;7.610;2024-03-08T01:09:25;4.40;99.90
37340;DHT22;23223;51.006;7.610;2024-03-08T01:11:52;4.40;99.90
37340;DHT22;23223;51.006;7.610;2024-03-08T01:14:20;4.40;99.90
37340;DHT22;23223;51.006;7.610;2024-03-08T01:16:48;4.60;99.90
37340;DHT22;23223;51.006;7.610;2024-03-08T01:19:13;4.60;99.90
37340;DHT22;23223;51.006;7.610;2024-03-08T01:21:39;4.60;99.90
37340;DHT22;23223;51.006;7.610;2024-03-08T01:24:05;4.70;99.90
37340;DHT22;23223;51.006;7.610;2024-03-08T01:26:31;4.70;99.90
37340;DHT22;23223;51.006;7.610;2024-03-08T01:28:56;4.70;99.90
37340;DHT22;23223;51.006;7.610;2024-03-08T01:31:22;4.70;99.90
37340;DHT22;23223;51.006;7.610;2024-03-08T01:33:47;4.50;99.90
37340;DHT22;23223;51.006;7.610;2024-03-08T01:36:15;4.40;99.90
37340;DHT22;23223;51.006;7.610;2024-03-08T01:38:42;4.30;99.90
37340;DHT22;23223;51.006;7.610;2024-03-08T01:41:08;4.30;99.90
37340;DHT22;23223;51.006;7.610;2024-03-08T01:43:34;4.50;99.90
37340;DHT22;23223;51.006;7.610;2024-03-08T01:46:00;4.60;99.90
37340;DHT22;23223;51.006;7.610;2024-03-08T01:48:28;4.70;99.90
37340;DHT22;23223;51.006;7.610;2024-03-08T01:50:55;4.70;99.90
37340;DHT22;23223;51.006;7.610;2024-03-08T01:53:22;4.60;99.90
37340;DHT22;23223;51.006;7.610;2024-03-08T01:55:48;4.80;99.90
37340;DHT22;23223;51.006;7.610;2024-03-08T01:58:15;4.90;99.90
37340;DHT22;23223;51.006;7.610;2024-03-08T02:00:45;5.00;99.90
37340;DHT22;23223;51.006;7.610;2024-03-08T02:03:12;5.10;99.90
37340;DHT22;23223;51.006;7.610;2024-03-08T02:05:40;5.20;99.90
37340;DHT22;23223;51.006;7.610;2024-03-08T02:08:06;5.10;99.90
37340;DHT22;23223;51.006;7.610;2024-03-08T02:10:44;5.20;99.90
37340;DHT22;23223;51.006;7.610;2024-03-08T02:13:10;5.10;99.90
37340;DHT22;23223;51.006;7.610;2024-03-08T02:15:56;5.10;99.90
37340;DHT22;23223;51.006;7.610;2024-03-08T02:18:24;5.20;99.90
37340;DHT22;23223;51.006;7.610;2024-03-08T02:21:00;5.30;99.90
37340;DHT22;23223;51.006;7.610;2024-03-08T02:23:27;5.40;99.90
37340;DHT22;23223;51.006;7.610;2024-03-08T02:25:54;5.40;99.90
37340;DHT22;23223;51.006;7.610;2024-03-08T02:28:20;5.30;99.90
37340;DHT22;23223;51.006;7.610;2024-03-08T02:30:47;5.20;99.90
37340;DHT22;23223;51.006;7.610;2024-03-08T02:33:17;5.30;99.90
37340;DHT22;23223;51.006;7.610;2024-03-08T02:35:43;5.20;99.90
37340;DHT22;23223;51.006;7.610;2024-03-08T02:38:17;5.20;99.90
37340;DHT22;23223;51.006;7.610;2024-03-08T02:40:44;5.30;99.90
37340;DHT22;23223;51.006;7.610;2024-03-08T02:43:11;5.40;99.90
37340;DHT22;23223;51.006;7.610;2024-03-08T02:45:37;5.30;99.90
37340;DHT22;23223;51.006;7.610;2024-03-08T02:48:04;5.30;99.90
37340;DHT22;23223;51.006;7.610;2024-03-08T02:50:32;5.30;99.90
37340;DHT22;23223;51.006;7.610;2024-03-08T02:52:57;5.20;99.90
37340;DHT22;23223;51.006;7.610;2024-03-08T02:55:23;5.20;99.90
37340;DHT22;23223;51.006;7.610;2024-03-08T02:57:51;5.30;99.90
37340;DHT22;23223;51.006;7.610;2024-03-08T03:00:17;5.20;99.90
37340;DHT22;23223;51.006;7.610;2024-03-08T03:02:45;5.10;99.90
37340;DHT22;23223;51.006;7.610;2024-03-08T03:05:13;5.10;99.90
37340;DHT22;23223;51.006;7.610;2024-03-08T03:07:39;5.10;99.90
37340;DHT22;23223;51.006;7.610;2024-03-08T03:10:05;5.10;99.90
37340;DHT22;23223;51.006;7.610;2024-03-08T03:12:32;5.20;99.90
37340;DHT22;23223;51.006;7.610;2024-03-08T03:14:59;5.10;99.90
37340;DHT22;23223;51.006;7.610;2024-03-08T03:17:25;5.00;99.90
37340;DHT22;23223;51.006;7.610;2024-03-08T03:19:51;5.10;99.90
37340;DHT22;23223;51.006;7.610;2024-03-08T03:22:19;5.10;99.90
37340;DHT22;23223;51.006;7.610;2024-03-08T03:24:45;5.00;99.90
37340;DHT22;23223;51.006;7.610;2024-03-08T03:27:14;5.00;99.90
37340;DHT22;23223;51.006;7.610;2024-03-08T03:29:43;5.10;99.90
37340;DHT22;23223;51.006;7.610;2024-03-08T03:32:13;5.10;99.90
37340;DHT22;23223;51.006;7.610;2024-03-08T03:34:39;5.10;99.90
37340;DHT22;23223;51.006;7.610;2024-03-08T03:37:05;4.90;99.90
37340;DHT22;23223;51.006;7.610;2024-03-08T03:39:32;4.80;99.90
37340;DHT22;23223;51.006;7.610;2024-03-08T03:42:02;4.80;99.90
37340;DHT22;23223;51.006;7.610;2024-03-08T03:44:31;5.00;99.90
37340;DHT22;23223;51.006;7.610;2024-03-08T03:46:57;5.10;99.90
37340;DHT22;23223;51.006;7.610;2024-03-08T03:49:23;5.20;99.90
37340;DHT22;23223;51.006;7.610;2024-03-08T03:51:49;5.20;99.90
37340;DHT22;23223;51.006;7.610;2024-03-08T03:54:15;5.20;99.90
37340;DHT22;23223;51.006;7.610;2024-03-08T03:56:41;5.10;99.90
37340;DHT22;23223;51.006;7.610;2024-03-08T03:59:06;4.70;99.90
37340;DHT22;23223;51.006;7.610;2024-03-08T04:01:33;4.20;99.90
37340;DHT22;23223;51.006;7.610;2024-03-08T04:03:59;4.10;99.90
37340;DHT22;23223;51.006;7.610;2024-03-08T04:06:25;4.20;99.90
37340;DHT22;23223;51.006;7.610;2024-03-08T04:08:50;4.10;99.90
37340;DHT22;23223;51.006;7.610;2024-03-08T04:11:16;4.10;99.90
37340;DHT22;23223;51.006;7.610;2024-03-08T04:13:42;4.20;99.90
37340;DHT22;23223;51.006;7.610;2024-03-08T04:16:08;4.50;99.90
37340;DHT22;23223;51.006;7.610;2024-03-08T04:18:34;4.80;99.90
37340;DHT22;23223;51.006;7.610;2024-03-08T04:21:06;4.80;99.90
37340;DHT22;23223;51.006;7.610;2024-03-08T04:23:33;4.90;99.90
37340;DHT22;23223;51.006;7.610;2024-03-08T04:26:01;4.90;99.90
37340;DHT22;23223;51.006;7.610;2024-03-08T04:28:27;4.70;99.90
37340;DHT22;23223;51.006;7.610;2024-03-08T04:30:52;4.40;99.90
37340;DHT22;23223;51.006;7.610;2024-03-08T04:33:18;4.20;99.90
37340;DHT22;23223;51.006;7.610;2024-03-08T04:35:43;3.80;99.90
37340;DHT22;23223;51.006;7.610;2024-03-08T04:38:11;3.90;99.90
37340;DHT22;23223;51.006;7.610;2024-03-08T04:40:36;4.00;99.90
37340;DHT22;23223;51.006;7.610;2024-03-08T04:43:02;3.80;99.90
37340;DHT22;23223;51.006;7.610;2024-03-08T04:45:28;3.20;99.90
37340;DHT22;23223;51.006;7.610;2024-03-08T04:47:53;2.60;99.90
37340;DHT22;23223;51.006;7.610;2024-03-08T04:50:19;2.30;99.90
37340;DHT22;23223;51.006;7.610;2024-03-08T04:52:44;2.10;99.90
37340;DHT22;23223;51.006;7.610;2024-03-08T04:55:10;2.00;99.90
37340;DHT22;23223;51.006;7.610;2024-03-08T04:57:36;2.00;99.90
37340;DHT22;23223;51.006;7.610;2024-03-08T05:00:03;2.00;99.90
37340;DHT22;23223;51.006;7.610;2024-03-08T05:02:35;2.00;99.90
37340;DHT22;23223;51.006;7.610;2024-03-08T05:05:01;2.40;99.90
37340;DHT22;23223;51.006;7.610;2024-03-08T05:07:27;2.90;99.90
37340;DHT22;23223;51.006;7.610;2024-03-08T05:09:53;3.40;99.90
37340;DHT22;23223;51.006;7.610;2024-03-08T05:12:19;3.80;99.90
37340;DHT22;23223;51.006;7.610;2024-03-08T05:14:45;4.00;99.90
37340;DHT22;23223;51.006;7.610;2024-03-08T05:17:15;4.10;99.90
37340;DHT22;23223;51.006;7.610;2024-03-08T05:19:42;4.10;99.90
37340;DHT22;23223;51.006;7.610;2024-03-08T05:22:07;4.10;99.90
37340;DHT22;23223;51.006;7.610;2024-03-08T05:24:33;4.00;99.90
37340;DHT22;23223;51.006;7.610;2024-03-08T05:26:59;3.60;99.90
37340;DHT22;23223;51.006;7.610;2024-03-08T05:29:26;3.30;99.90
37340;DHT22;23223;51.006;7.610;2024-03-08T05:31:52;3.00;99.90
37340;DHT22;23223;51.006;7.610;2024-03-08T05:34:18;3.20;99.90
37340;DHT22;23223;51.006;7.610;2024-03-08T05:36:45;3.30;99.90
37340;DHT22;23223;51.006;7.610;2024-03-08T05:39:12;3.40;99.90
37340;DHT22;23223;51.006;7.610;2024-03-08T05:41:39;3.50;99.90
37340;DHT22;23223;51.006;7.610;2024-03-08T05:44:05;3.60;99.90
37340;DHT22;23223;51.006;7.610;2024-03-08T05:46:30;3.60;99.90
37340;DHT22;23223;51.006;7.610;2024-03-08T05:48:56;3.70;99.90
37340;DHT22;23223;51.006;7.610;2024-03-08T05:51:24;3.60;99.90
37340;DHT22;23223;51.006;7.610;2024-03-08T05:53:51;3.70;99.90
37340;DHT22;23223;51.006;7.610;2024-03-08T05:56:19;3.70;99.90
37340;DHT22;23223;51.006;7.610;2024-03-08T05:58:44;3.70;99.90
37340;DHT22;23223;51.006;7.610;2024-03-08T06:01:11;3.80;99.90
37340;DHT22;23223;51.006;7.610;2024-03-08T06:03:38;3.90;99.90
37340;DHT22;23223;51.006;7.610;2024-03-08T06:06:13;3.70;99.90
37340;DHT22;23223;51.006;7.610;2024-03-08T06:08:39;3.80;99.90
37340;DHT22;23223;51.006;7.610;2024-03-08T06:11:05;3.90;99.90
37340;DHT22;23223;51.006;7.610;2024-03-08T06:13:33;4.10;99.90
37340;DHT22;23223;51.006;7.610;2024-03-08T06:15:59;4.20;99.90
37340;DHT22;23223;51.006;7.610;2024-03-08T06:18:26;4.10;99.90
37340;DHT22;23223;51.006;7.610;2024-03-08T06:20:52;4.10;99.90
37340;DHT22;23223;51.006;7.610;2024-03-08T06:23:18;4.40;99.90
37340;DHT22;23223;51.006;7.610;2024-03-08T06:25:44;4.40;99.90
37340;DHT22;23223;51.006;7.610;2024-03-08T06:28:10;4.50;99.90
37340;DHT22;23223;51.006;7.610;2024-03-08T06:30:35;4.60;99.90
37340;DHT22;23223;51.006;7.610;2024-03-08T06:33:01;4.60;99.90
37340;DHT22;23223;51.006;7.610;2024-03-08T06:35:27;4.60;99.90
37340;DHT22;23223;51.006;7.610;2024-03-08T06:37:53;4.50;99.90
37340;DHT22;23223;51.006;7.610;2024-03-08T06:40:19;4.50;99.90
37340;DHT22;23223;51.006;7.610;2024-03-08T06:42:44;4.70;99.90
37340;DHT22;23223;51.006;7.610;2024-03-08T06:45:10;5.00;99.90
37340;DHT22;23223;51.006;7.610;2024-03-08T06:47:37;5.20;99.90
37340;DHT22;23223;51.006;7.610;2024-03-08T06:50:04;5.40;99.90
37340;DHT22;23223;51.006;7.610;2024-03-08T06:52:30;5.70;99.90
37340;DHT22;23223;51.006;7.610;2024-03-08T06:54:55;5.90;99.90
37340;DHT22;23223;51.006;7.610;2024-03-08T06:57:22;6.20;99.90
37340;DHT22;23223;51.006;7.610;2024-03-08T06:59:49;6.40;99.90
37340;DHT22;23223;51.006;7.610;2024-03-08T07:02:14;6.60;99.90
37340;DHT22;23223;51.006;7.610;2024-03-08T07:04:40;6.80;99.90
37340;DHT22;23223;51.006;7.610;2024-03-08T07:07:06;7.00;99.90
37340;DHT22;23223;51.006;7.610;2024-03-08T07:09:35;7.20;99.90
37340;DHT22;23223;51.006;7.610;2024-03-08T07:12:01;7.50;99.90
37340;DHT22;23223;51.006;7.610;2024-03-08T07:14:27;7.80;99.90
37340;DHT22;23223;51.006;7.610;2024-03-08T07:16:53;8.10;99.90
37340;DHT22;23223;51.006;7.610;2024-03-08T07:19:18;8.30;97.40
37340;DHT22;23223;51.006;7.610;2024-03-08T07:21:44;8.30;99.90
37340;DHT22;23223;51.006;7.610;2024-03-08T07:24:11;8.60;96.30
37340;DHT22;23223;51.006;7.610;2024-03-08T07:26:42;8.80;83.20
37340;DHT22;23223;51.006;7.610;2024-03-08T07:29:08;9.10;83.70
37340;DHT22;23223;51.006;7.610;2024-03-08T07:31:34;9.30;77.00
37340;DHT22;23223;51.006;7.610;2024-03-08T07:34:02;9.50;69.50
37340;DHT22;23223;51.006;7.610;2024-03-08T07:36:28;9.60;70.90
37340;DHT22;23223;51.006;7.610;2024-03-08T07:38:54;9.50;22.30
37340;DHT22;23223;51.006;7.610;2024-03-08T07:41:20;9.70;59.40
37340;DHT22;23223;51.006;7.610;2024-03-08T07:43:45;9.70;25.70
37340;DHT22;23223;51.006;7.610;2024-03-08T07:46:11;10.10;60.40
37340;DHT22;23223;51.006;7.610;2024-03-08T07:48:38;10.40;27.60
37340;DHT22;23223;51.006;7.610;2024-03-08T07:51:05;10.20;10.90
37340;DHT22;23223;51.006;7.610;2024-03-08T07:53:31;9.80;58.90
37340;DHT22;23223;51.006;7.610;2024-03-08T07:55:57;10.00;50.70
37340;DHT22;23223;51.006;7.610;2024-03-08T07:58:22;9.80;14.40
37340;DHT22;23223;51.006;7.610;2024-03-08T08:00:49;9.80;58.10
37340;DHT22;23223;51.006;7.610;2024-03-08T08:03:15;9.50;29.70
37340;DHT22;23223;51.006;7.610;2024-03-08T08:05:41;9.60;30.40
37340;DHT22;23223;51.006;7.610;2024-03-08T08:08:10;9.60;25.40
37340;DHT22;23223;51.006;7.610;2024-03-08T08:10:36;10.10;46.00
37340;DHT22;23223;51.006;7.610;2024-03-08T08:13:02;10.60;5.80
37340;DHT22;23223;51.006;7.610;2024-03-08T08:15:30;10.60;20.70
37340;DHT22;23223;51.006;7.610;2024-03-08T08:17:55;10.70;1.00
37340;DHT22;23223;51.006;7.610;2024-03-08T08:20:21;11.00;1.00
37340;DHT22;23223;51.006;7.610;2024-03-08T08:22:48;10.90;1.00
37340;DHT22;23223;51.006;7.610;2024-03-08T08:25:14;10.80;1.00
37340;DHT22;23223;51.006;7.610;2024-03-08T08:27:46;10.80;1.00
37340;DHT22;23223;51.006;7.610;2024-03-08T08:30:12;10.60;1.00
37340;DHT22;23223;51.006;7.610;2024-03-08T08:32:39;10.60;1.00
37340;DHT22;23223;51.006;7.610;2024-03-08T08:35:08;10.60;1.00
37340;DHT22;23223;51.006;7.610;2024-03-08T08:37:39;10.20;1.00
37340;DHT22;23223;51.006;7.610;2024-03-08T08:40:05;10.30;1.00
37340;DHT22;23223;51.006;7.610;2024-03-08T08:42:35;10.10;1.00
37340;DHT22;23223;51.006;7.610;2024-03-08T08:45:01;10.40;8.30
37340;DHT22;23223;51.006;7.610;2024-03-08T08:47:27;11.10;1.00
37340;DHT22;23223;51.006;7.610;2024-03-08T08:49:52;11.20;1.00
37340;DHT22;23223;51.006;7.610;2024-03-08T08:52:19;11.10;1.00
37340;DHT22;23223;51.006;7.610;2024-03-08T08:54:45;10.90;1.00
37340;DHT22;23223;51.006;7.610;2024-03-08T08:57:10;11.20;1.00
37340;DHT22;23223;51.006;7.610;2024-03-08T08:59:36;10.40;1.00
37340;DHT22;23223;51.006;7.610;2024-03-08T09:02:02;10.60;1.00
37340;DHT22;23223;51.006;7.610;2024-03-08T09:04:31;10.70;1.00
37340;DHT22;23223;51.006;7.610;2024-03-08T09:06:57;10.60;1.00
37340;DHT22;23223;51.006;7.610;2024-03-08T09:09:23;10.90;1.00
37340;DHT22;23223;51.006;7.610;2024-03-08T09:11:49;10.60;1.00
37340;DHT22;23223;51.006;7.610;2024-03-08T09:14:15;10.90;1.00
37340;DHT22;23223;51.006;7.610;2024-03-08T09:16:41;11.20;1.00
37340;DHT22;23223;51.006;7.610;2024-03-08T09:19:09;11.40;1.00
37340;DHT22;23223;51.006;7.610;2024-03-08T09:21:36;12.00;1.00
37340;DHT22;23223;51.006;7.610;2024-03-08T09:24:02;12.30;1.00
37340;DHT22;23223;51.006;7.610;2024-03-08T09:26:27;12.20;1.00
37340;DHT22;23223;51.006;7.610;2024-03-08T09:28:53;12.40;1.00
37340;DHT22;23223;51.006;7.610;2024-03-08T09:31:23;11.90;1.00
37340;DHT22;23223;51.006;7.610;2024-03-08T09:33:49;11.50;1.00
37340;DHT22;23223;51.006;7.610;2024-03-08T09:36:16;11.70;1.00
37340;DHT22;23223;51.006;7.610;2024-03-08T09:38:41;11.70;1.00
37340;DHT22;23223;51.006;7.610;2024-03-08T09:41:07;11.40;1.00
37340;DHT22;23223;51.006;7.610;2024-03-08T09:43:36;12.00;1.00
37340;DHT22;23223;51.006;7.610;2024-03-08T09:46:02;12.40;1.00
37340;DHT22;23223;51.006;7.610;2024-03-08T09:48:29;12.80;1.00
37340;DHT22;23223;51.006;7.610;2024-03-08T09:50:55;12.90;1.00
37340;DHT22;23223;51.006;7.610;2024-03-08T09:53:22;13.00;1.00
37340;DHT22;23223;51.006;7.610;2024-03-08T09:55:48;12.60;1.00
37340;DHT22;23223;51.006;7.610;2024-03-08T09:58:16;12.80;1.00
37340;DHT22;23223;51.006;7.610;2024-03-08T10:00:47;12.80;1.00
37340;DHT22;23223;51.006;7.610;2024-03-08T10:03:13;13.20;1.00
37340;DHT22;23223;51.006;7.610;2024-03-08T10:05:40;13.10;1.00
37340;DHT22;23223;51.006;7.610;2024-03-08T10:08:06;13.20;1.00
37340;DHT22;23223;51.006;7.610;2024-03-08T10:10:34;13.60;1.00
37340;DHT22;23223;51.006;7.610;2024-03-08T10:13:00;13.90;1.00
37340;DHT22;23223;51.006;7.610;2024-03-08T10:15:29;14.20;1.00
37340;DHT22;23223;51.006;7.610;2024-03-08T10:17:56;14.30;1.00
37340;DHT22;23223;51.006;7.610;2024-03-08T10:20:22;14.60;1.00
37340;DHT22;23223;51.006;7.610;2024-03-08T10:22:49;14.90;1.00
37340;DHT22;23223;51.006;7.610;2024-03-08T10:25:15;15.40;1.00
37340;DHT22;23223;51.006;7.610;2024-03-08T10:27:41;15.70;1.00
37340;DHT22;23223;51.006;7.610;2024-03-08T10:30:11;15.10;1.00
37340;DHT22;23223;51.006;7.610;2024-03-08T10:32:38;15.30;1.00
37340;DHT22;23223;51.006;7.610;2024-03-08T10:35:04;14.90;1.00
37340;DHT22;23223;51.006;7.610;2024-03-08T10:37:30;14.50;1.00
37340;DHT22;23223;51.006;7.610;2024-03-08T10:40:09;15.00;1.00
37340;DHT22;23223;51.006;7.610;2024-03-08T10:45:31;15.30;1.00
37340;DHT22;23223;51.006;7.610;2024-03-08T10:51:00;15.10;1.00
37340;DHT22;23223;51.006;7.610;2024-03-08T10:53:28;15.20;1.00
37340;DHT22;23223;51.006;7.610;2024-03-08T10:55:57;14.50;1.00
37340;DHT22;23223;51.006;7.610;2024-03-08T10:58:27;14.30;1.00
37340;DHT22;23223;51.006;7.610;2024-03-08T11:00:57;14.50;1.00
37340;DHT22;23223;51.006;7.610;2024-03-08T11:06:07;14.60;1.00
37340;DHT22;23223;51.006;7.610;2024-03-08T11:08:36;14.20;1.00
37340;DHT22;23223;51.006;7.610;2024-03-08T11:11:03;14.30;1.00
37340;DHT22;23223;51.006;7.610;2024-03-08T11:13:40;14.40;1.00
37340;DHT22;23223;51.006;7.610;2024-03-08T11:18:53;13.60;1.00
37340;DHT22;23223;51.006;7.610;2024-03-08T11:21:19;13.60;1.00
37340;DHT22;23223;51.006;7.610;2024-03-08T11:24:07;13.70;1.00
37340;DHT22;23223;51.006;7.610;2024-03-08T11:26:33;13.80;1.00
37340;DHT22;23223;51.006;7.610;2024-03-08T11:34:32;15.50;1.00
37340;DHT22;23223;51.006;7.610;2024-03-08T11:37:00;15.10;1.00
37340;DHT22;23223;51.006;7.610;2024-03-08T11:39:29;14.70;1.00
37340;DHT22;23223;51.006;7.610;2024-03-08T11:41:56;14.80;1.00
37340;DHT22;23223;51.006;7.610;2024-03-08T11:44:24;14.80;1.00
37340;DHT22;23223;51.006;7.610;2024-03-08T11:46:53;14.40;1.00
37340;DHT22;23223;51.006;7.610;2024-03-08T11:49:19;14.90;1.00
37340;DHT22;23223;51.006;7.610;2024-03-08T11:51:45;15.40;1.00
37340;DHT22;23223;51.006;7.610;2024-03-08T11:54:12;15.00;1.00
37340;DHT22;23223;51.006;7.610;2024-03-08T11:56:41;15.20;1.00
37340;DHT22;23223;51.006;7.610;2024-03-08T11:59:12;15.00;1.00
37340;DHT22;23223;51.006;7.610;2024-03-08T12:01:41;15.20;1.00
37340;DHT22;23223;51.006;7.610;2024-03-08T12:04:06;15.40;1.00
37340;DHT22;23223;51.006;7.610;2024-03-08T12:06:39;15.60;1.00
37340;DHT22;23223;51.006;7.610;2024-03-08T12:09:09;15.30;1.00
37340;DHT22;23223;51.006;7.610;2024-03-08T12:11:36;15.40;1.00
37340;DHT22;23223;51.006;7.610;2024-03-08T12:14:03;16.00;1.00
37340;DHT22;23223;51.006;7.610;2024-03-08T12:16:28;16.20;1.00
37340;DHT22;23223;51.006;7.610;2024-03-08T12:18:54;15.90;1.00
37340;DHT22;23223;51.006;7.610;2024-03-08T12:21:20;16.10;1.00
37340;DHT22;23223;51.006;7.610;2024-03-08T12:23:48;15.90;1.00
37340;DHT22;23223;51.006;7.610;2024-03-08T12:26:28;16.00;1.00
37340;DHT22;23223;51.006;7.610;2024-03-08T12:29:00;15.80;1.00
37340;DHT22;23223;51.006;7.610;2024-03-08T12:31:39;15.70;1.00
37340;DHT22;23223;51.006;7.610;2024-03-08T12:34:08;15.40;1.00
37340;DHT22;23223;51.006;7.610;2024-03-08T12:36:35;15.50;1.00
37340;DHT22;23223;51.006;7.610;2024-03-08T12:39:02;15.40;1.00
37340;DHT22;23223;51.006;7.610;2024-03-08T12:41:29;15.60;1.00
37340;DHT22;23223;51.006;7.610;2024-03-08T12:43:55;15.20;1.00
37340;DHT22;23223;51.006;7.610;2024-03-08T12:46:21;15.40;1.00
37340;DHT22;23223;51.006;7.610;2024-03-08T12:48:52;15.60;1.00
37340;DHT22;23223;51.006;7.610;2024-03-08T12:51:21;15.40;1.00
37340;DHT22;23223;51.006;7.610;2024-03-08T12:53:47;15.10;1.00
37340;DHT22;23223;51.006;7.610;2024-03-08T12:56:16;15.30;1.00
37340;DHT22;23223;51.006;7.610;2024-03-08T12:58:44;15.80;1.00
37340;DHT22;23223;51.006;7.610;2024-03-08T13:01:10;15.90;1.00
37340;DHT22;23223;51.006;7.610;2024-03-08T13:03:37;15.50;1.00
37340;DHT22;23223;51.006;7.610;2024-03-08T13:06:04;15.50;1.00
37340;DHT22;23223;51.006;7.610;2024-03-08T13:08:39;15.70;1.00
37340;DHT22;23223;51.006;7.610;2024-03-08T13:11:06;15.80;1.00
37340;DHT22;23223;51.006;7.610;2024-03-08T13:13:32;15.80;1.00
37340;DHT22;23223;51.006;7.610;2024-03-08T13:16:01;15.10;1.00
37340;DHT22;23223;51.006;7.610;2024-03-08T13:18:27;14.90;1.00
37340;DHT22;23223;51.006;7.610;2024-03-08T13:20:54;14.60;1.00
37340;DHT22;23223;51.006;7.610;2024-03-08T13:23:20;14.90;1.00
37340;DHT22;23223;51.006;7.610;2024-03-08T13:25:45;14.90;1.00
37340;DHT22;23223;51.006;7.610;2024-03-08T13:28:13;14.70;1.00
37340;DHT22;23223;51.006;7.610;2024-03-08T13:30:39;15.00;1.00
37340;DHT22;23223;51.006;7.610;2024-03-08T13:33:04;15.00;1.00
37340;DHT22;23223;51.006;7.610;2024-03-08T13:35:31;14.80;1.00
37340;DHT22;23223;51.006;7.610;2024-03-08T13:37:56;14.60;1.00
37340;DHT22;23223;51.006;7.610;2024-03-08T13:40:22;14.60;1.00
37340;DHT22;23223;51.006;7.610;2024-03-08T13:42:48;14.70;1.00
37340;DHT22;23223;51.006;7.610;2024-03-08T13:45:17;14.20;1.00
37340;DHT22;23223;51.006;7.610;2024-03-08T13:47:53;14.60;1.00
37340;DHT22;23223;51.006;7.610;2024-03-08T13:50:19;14.60;1.00
37340;DHT22;23223;51.006;7.610;2024-03-08T13:52:47;14.70;1.00
37340;DHT22;23223;51.006;7.610;2024-03-08T13:55:20;14.30;1.00
37340;DHT22;23223;51.006;7.610;2024-03-08T13:57:47;14.30;1.00
37340;DHT22;23223;51.006;7.610;2024-03-08T14:00:13;14.20;1.00
37340;DHT22;23223;51.006;7.610;2024-03-08T14:02:38;14.50;1.00
37340;DHT22;23223;51.006;7.610;2024-03-08T14:05:07;14.50;1.00
37340;DHT22;23223;51.006;7.610;2024-03-08T14:07:35;14.30;99.90
37340;DHT22;23223;51.006;7.610;2024-03-08T14:10:01;14.50;99.90
37340;DHT22;23223;51.006;7.610;2024-03-08T14:12:26;14.80;1.00
37340;DHT22;23223;51.006;7.610;2024-03-08T14:14:53;14.90;1.00
37340;DHT22;23223;51.006;7.610;2024-03-08T14:17:18;15.00;1.00
37340;DHT22;23223;51.006;7.610;2024-03-08T14:19:44;15.10;99.90
37340;DHT22;23223;51.006;7.610;2024-03-08T14:22:10;14.40;99.90
37340;DHT22;23223;51.006;7.610;2024-03-08T14:24:42;14.40;99.90
37340;DHT22;23223;51.006;7.610;2024-03-08T14:27:10;14.70;99.90
37340;DHT22;23223;51.006;7.610;2024-03-08T14:29:37;15.00;99.90
37340;DHT22;23223;51.006;7.610;2024-03-08T14:32:06;14.90;99.90
37340;DHT22;23223;51.006;7.610;2024-03-08T14:34:35;14.70;99.90
37340;DHT22;23223;51.006;7.610;2024-03-08T14:37:01;14.40;99.90
37340;DHT22;23223;51.006;7.610;2024-03-08T14:39:31;14.50;99.90
37340;DHT22;23223;51.006;7.610;2024-03-08T14:41:59;14.10;99.90
37340;DHT22;23223;51.006;7.610;2024-03-08T14:44:25;14.10;99.90
37340;DHT22;23223;51.006;7.610;2024-03-08T14:46:55;14.40;99.90
37340;DHT22;23223;51.006;7.610;2024-03-08T14:49:22;14.20;99.90
37340;DHT22;23223;51.006;7.610;2024-03-08T14:51:48;14.40;99.90
37340;DHT22;23223;51.006;7.610;2024-03-08T14:54:14;14.00;99.90
37340;DHT22;23223;51.006;7.610;2024-03-08T14:56:39;14.20;99.90
37340;DHT22;23223;51.006;7.610;2024-03-08T14:59:07;14.00;99.90
37340;DHT22;23223;51.006;7.610;2024-03-08T15:01:34;14.00;99.90
37340;DHT22;23223;51.006;7.610;2024-03-08T15:04:03;13.90;99.90
37340;DHT22;23223;51.006;7.610;2024-03-08T15:06:35;14.10;99.90
37340;DHT22;23223;51.006;7.610;2024-03-08T15:09:02;14.10;99.90
37340;DHT22;23223;51.006;7.610;2024-03-08T15:11:37;14.00;99.90
37340;DHT22;23223;51.006;7.610;2024-03-08T15:14:04;14.00;99.90
37340;DHT22;23223;51.006;7.610;2024-03-08T15:16:33;13.60;99.90
37340;DHT22;23223;51.006;7.610;2024-03-08T15:19:00;13.70;99.90
37340;DHT22;23223;51.006;7.610;2024-03-08T15:21:26;13.70;1.00
37340;DHT22;23223;51.006;7.610;2024-03-08T15:23:51;13.50;1.00
37340;DHT22;23223;51.006;7.610;2024-03-08T15:26:19;13.10;1.00
37340;DHT22;23223;51.006;7.610;2024-03-08T15:28:45;12.70;1.00
37340;DHT22;23223;51.006;7.610;2024-03-08T15:31:12;12.70;1.00
37340;DHT22;23223;51.006;7.610;2024-03-08T15:33:39;12.80;1.00
37340;DHT22;23223;51.006;7.610;2024-03-08T15:36:17;12.80;1.00
37340;DHT22;23223;51.006;7.610;2024-03-08T15:38:43;12.60;1.00
37340;DHT22;23223;51.006;7.610;2024-03-08T15:41:13;12.40;1.00
37340;DHT22;23223;51.006;7.610;2024-03-08T15:43:39;12.20;1.00
37340;DHT22;23223;51.006;7.610;2024-03-08T15:46:09;12.40;1.00
37340;DHT22;23223;51.006;7.610;2024-03-08T15:48:36;12.50;1.00
37340;DHT22;23223;51.006;7.610;2024-03-08T15:51:05;12.40;1.00
37340;DHT22;23223;51.006;7.610;2024-03-08T15:53:38;12.30;1.00
37340;DHT22;23223;51.006;7.610;2024-03-08T15:56:04;12.30;1.00
37340;DHT22;23223;51.006;7.610;2024-03-08T15:58:37;12.30;1.00
37340;DHT22;23223;51.006;7.610;2024-03-08T16:01:04;11.90;1.00